sensor_id;sensor_type;location;lat;lon;timestamp;P1;durP1;ratioP1;P2;durP2;ratioP2
51248;SDS011;39642;47.556;18.728;2023-03-08T00:00:59;14.70;;;7.70;;
51248;SDS011;39642;47.556;18.728;2023-03-08T00:03:25;15.00;;;7.68;;
51248;SDS011;39642;47.556;18.728;2023-03-08T00:05:51;15.93;;;8.20;;
51248;SDS011;39642;47.556;18.728;2023-03-08T00:08:17;16.12;;;7.90;;
51248;SDS011;39642;47.556;18.728;2023-03-08T00:10:43;16.15;;;8.07;;
51248;SDS011;39642;47.556;18.728;2023-03-08T00:13:10;17.77;;;8.57;;
51248;SDS011;39642;47.556;18.728;2023-03-08T00:15:37;16.40;;;8.07;;
51248;SDS011;39642;47.556;18.728;2023-03-08T00:18:04;17.67;;;8.23;;
51248;SDS011;39642;47.556;18.728;2023-03-08T00:20:30;15.40;;;7.93;;
51248;SDS011;39642;47.556;18.728;2023-03-08T00:22:57;16.30;;;8.05;;
51248;SDS011;39642;47.556;18.728;2023-03-08T00:25:23;15.40;;;8.05;;
51248;SDS011;39642;47.556;18.728;2023-03-08T00:27:49;16.15;;;8.60;;
51248;SDS011;39642;47.556;18.728;2023-03-08T00:30:15;15.90;;;8.05;;
51248;SDS011;39642;47.556;18.728;2023-03-08T00:32:41;15.63;;;8.07;;
51248;SDS011;39642;47.556;18.728;2023-03-08T00:35:07;16.60;;;8.05;;
51248;SDS011;39642;47.556;18.728;2023-03-08T00:37:33;16.33;;;7.87;;
51248;SDS011;39642;47.556;18.728;2023-03-08T00:39:59;14.95;;;7.53;;
51248;SDS011;39642;47.556;18.728;2023-03-08T00:42:25;16.52;;;7.60;;
51248;SDS011;39642;47.556;18.728;2023-03-08T00:44:51;15.23;;;7.82;;
51248;SDS011;39642;47.556;18.728;2023-03-08T00:47:17;15.50;;;7.57;;
51248;SDS011;39642;47.556;18.728;2023-03-08T00:49:43;15.07;;;7.75;;
51248;SDS011;39642;47.556;18.728;2023-03-08T00:52:09;15.30;;;7.90;;
51248;SDS011;39642;47.556;18.728;2023-03-08T00:54:36;15.38;;;7.90;;
51248;SDS011;39642;47.556;18.728;2023-03-08T00:57:02;15.25;;;8.15;;
51248;SDS011;39642;47.556;18.728;2023-03-08T00:59:28;15.55;;;8.02;;
51248;SDS011;39642;47.556;18.728;2023-03-08T01:01:54;14.35;;;7.57;;
51248;SDS011;39642;47.556;18.728;2023-03-08T01:04:20;15.38;;;7.93;;
51248;SDS011;39642;47.556;18.728;2023-03-08T01:06:46;15.18;;;7.60;;
51248;SDS011;39642;47.556;18.728;2023-03-08T01:09:12;15.52;;;7.65;;
51248;SDS011;39642;47.556;18.728;2023-03-08T01:11:38;15.32;;;7.40;;
51248;SDS011;39642;47.556;18.728;2023-03-08T01:14:05;15.52;;;7.65;;
51248;SDS011;39642;47.556;18.728;2023-03-08T01:16:33;14.77;;;7.50;;
51248;SDS011;39642;47.556;18.728;2023-03-08T01:18:59;14.38;;;6.78;;
51248;SDS011;39642;47.556;18.728;2023-03-08T01:21:26;16.48;;;7.53;;
51248;SDS011;39642;47.556;18.728;2023-03-08T01:23:53;14.98;;;7.68;;
51248;SDS011;39642;47.556;18.728;2023-03-08T01:26:23;15.05;;;7.20;;
51248;SDS011;39642;47.556;18.728;2023-03-08T01:28:51;13.95;;;7.00;;
51248;SDS011;39642;47.556;18.728;2023-03-08T01:31:18;15.73;;;7.57;;
51248;SDS011;39642;47.556;18.728;2023-03-08T01:33:52;14.48;;;7.30;;
51248;SDS011;39642;47.556;18.728;2023-03-08T01:36:19;14.32;;;7.32;;
51248;SDS011;39642;47.556;18.728;2023-03-08T01:38:47;16.25;;;7.68;;
51248;SDS011;39642;47.556;18.728;2023-03-08T01:43:47;13.40;;;7.30;;
51248;SDS011;39642;47.556;18.728;2023-03-08T01:49:13;14.02;;;6.87;;
51248;SDS011;39642;47.556;18.728;2023-03-08T01:51:44;15.60;;;7.78;;
51248;SDS011;39642;47.556;18.728;2023-03-08T01:59:42;13.23;;;6.35;;
51248;SDS011;39642;47.556;18.728;2023-03-08T02:02:09;15.00;;;6.87;;
51248;SDS011;39642;47.556;18.728;2023-03-08T02:04:35;14.70;;;7.55;;
51248;SDS011;39642;47.556;18.728;2023-03-08T02:07:03;13.35;;;6.93;;
51248;SDS011;39642;47.556;18.728;2023-03-08T02:09:29;14.10;;;6.90;;
51248;SDS011;39642;47.556;18.728;2023-03-08T02:11:58;14.00;;;7.25;;
51248;SDS011;39642;47.556;18.728;2023-03-08T02:14:27;14.73;;;7.20;;
51248;SDS011;39642;47.556;18.728;2023-03-08T02:16:53;13.55;;;6.82;;
51248;SDS011;39642;47.556;18.728;2023-03-08T02:19:20;13.90;;;6.47;;
51248;SDS011;39642;47.556;18.728;2023-03-08T02:21:52;13.73;;;6.73;;
51248;SDS011;39642;47.556;18.728;2023-03-08T02:24:19;13.40;;;6.70;;
51248;SDS011;39642;47.556;18.728;2023-03-08T02:26:47;13.68;;;6.62;;
51248;SDS011;39642;47.556;18.728;2023-03-08T02:29:14;13.85;;;6.53;;
51248;SDS011;39642;47.556;18.728;2023-03-08T02:31:40;14.15;;;6.90;;
51248;SDS011;39642;47.556;18.728;2023-03-08T02:34:06;13.77;;;7.00;;
51248;SDS011;39642;47.556;18.728;2023-03-08T02:36:32;13.55;;;6.43;;
51248;SDS011;39642;47.556;18.728;2023-03-08T02:38:57;13.23;;;6.75;;
51248;SDS011;39642;47.556;18.728;2023-03-08T02:41:23;13.80;;;6.68;;
51248;SDS011;39642;47.556;18.728;2023-03-08T02:43:49;15.18;;;7.05;;
51248;SDS011;39642;47.556;18.728;2023-03-08T02:46:15;13.00;;;6.72;;
51248;SDS011;39642;47.556;18.728;2023-03-08T02:48:41;13.35;;;6.62;;
51248;SDS011;39642;47.556;18.728;2023-03-08T02:51:07;13.35;;;6.60;;
51248;SDS011;39642;47.556;18.728;2023-03-08T02:53:33;13.80;;;6.50;;
51248;SDS011;39642;47.556;18.728;2023-03-08T02:55:58;14.32;;;6.75;;
51248;SDS011;39642;47.556;18.728;2023-03-08T02:58:24;13.02;;;6.20;;
51248;SDS011;39642;47.556;18.728;2023-03-08T03:00:50;13.27;;;5.97;;
51248;SDS011;39642;47.556;18.728;2023-03-08T03:03:16;13.35;;;6.43;;
51248;SDS011;39642;47.556;18.728;2023-03-08T03:05:42;13.38;;;6.35;;
51248;SDS011;39642;47.556;18.728;2023-03-08T03:08:10;13.50;;;6.43;;
51248;SDS011;39642;47.556;18.728;2023-03-08T03:10:37;13.18;;;6.43;;
51248;SDS011;39642;47.556;18.728;2023-03-08T03:13:03;12.90;;;6.37;;
51248;SDS011;39642;47.556;18.728;2023-03-08T03:15:30;13.20;;;6.10;;
51248;SDS011;39642;47.556;18.728;2023-03-08T03:17:57;13.70;;;6.53;;
51248;SDS011;39642;47.556;18.728;2023-03-08T03:20:23;13.55;;;6.55;;
51248;SDS011;39642;47.556;18.728;2023-03-08T03:22:49;13.68;;;6.37;;
51248;SDS011;39642;47.556;18.728;2023-03-08T03:25:15;12.70;;;5.87;;
51248;SDS011;39642;47.556;18.728;2023-03-08T03:27:41;13.25;;;6.18;;
51248;SDS011;39642;47.556;18.728;2023-03-08T03:30:07;13.55;;;6.25;;
51248;SDS011;39642;47.556;18.728;2023-03-08T03:32:34;13.55;;;6.35;;
51248;SDS011;39642;47.556;18.728;2023-03-08T03:35:00;12.73;;;6.12;;
51248;SDS011;39642;47.556;18.728;2023-03-08T03:37:26;13.05;;;6.28;;
51248;SDS011;39642;47.556;18.728;2023-03-08T03:39:52;13.93;;;6.43;;
51248;SDS011;39642;47.556;18.728;2023-03-08T03:42:17;12.88;;;6.35;;
51248;SDS011;39642;47.556;18.728;2023-03-08T03:44:43;12.93;;;5.87;;
51248;SDS011;39642;47.556;18.728;2023-03-08T03:47:09;13.15;;;6.12;;
51248;SDS011;39642;47.556;18.728;2023-03-08T03:49:35;12.73;;;6.20;;
51248;SDS011;39642;47.556;18.728;2023-03-08T03:52:01;13.15;;;6.25;;
51248;SDS011;39642;47.556;18.728;2023-03-08T03:54:27;12.37;;;6.05;;
51248;SDS011;39642;47.556;18.728;2023-03-08T03:56:54;12.68;;;6.12;;
51248;SDS011;39642;47.556;18.728;2023-03-08T03:59:23;12.07;;;5.87;;
51248;SDS011;39642;47.556;18.728;2023-03-08T04:01:49;13.48;;;5.97;;
51248;SDS011;39642;47.556;18.728;2023-03-08T04:04:15;12.73;;;6.00;;
51248;SDS011;39642;47.556;18.728;2023-03-08T04:06:42;12.50;;;6.15;;
51248;SDS011;39642;47.556;18.728;2023-03-08T04:09:12;12.60;;;6.15;;
51248;SDS011;39642;47.556;18.728;2023-03-08T04:11:40;12.90;;;6.10;;
51248;SDS011;39642;47.556;18.728;2023-03-08T04:14:06;12.40;;;5.85;;
51248;SDS011;39642;47.556;18.728;2023-03-08T04:16:36;12.90;;;6.40;;
51248;SDS011;39642;47.556;18.728;2023-03-08T04:19:04;12.05;;;5.95;;
51248;SDS011;39642;47.556;18.728;2023-03-08T04:21:33;11.65;;;5.40;;
51248;SDS011;39642;47.556;18.728;2023-03-08T04:23:59;12.40;;;6.20;;
51248;SDS011;39642;47.556;18.728;2023-03-08T04:26:25;12.95;;;6.05;;
51248;SDS011;39642;47.556;18.728;2023-03-08T04:28:51;11.90;;;5.70;;
51248;SDS011;39642;47.556;18.728;2023-03-08T04:33:45;12.00;;;5.40;;
51248;SDS011;39642;47.556;18.728;2023-03-08T04:36:12;11.82;;;5.53;;
51248;SDS011;39642;47.556;18.728;2023-03-08T04:38:38;11.80;;;5.93;;
51248;SDS011;39642;47.556;18.728;2023-03-08T04:41:04;12.05;;;5.45;;
51248;SDS011;39642;47.556;18.728;2023-03-08T04:43:34;12.35;;;5.68;;
51248;SDS011;39642;47.556;18.728;2023-03-08T04:46:01;10.98;;;5.37;;
51248;SDS011;39642;47.556;18.728;2023-03-08T04:48:28;12.32;;;5.95;;
51248;SDS011;39642;47.556;18.728;2023-03-08T04:50:54;11.77;;;5.60;;
51248;SDS011;39642;47.556;18.728;2023-03-08T04:53:21;12.35;;;5.40;;
51248;SDS011;39642;47.556;18.728;2023-03-08T04:55:48;12.00;;;5.47;;
51248;SDS011;39642;47.556;18.728;2023-03-08T04:58:14;13.05;;;5.57;;
51248;SDS011;39642;47.556;18.728;2023-03-08T05:00:40;11.93;;;5.65;;
51248;SDS011;39642;47.556;18.728;2023-03-08T05:03:07;12.13;;;5.65;;
51248;SDS011;39642;47.556;18.728;2023-03-08T05:05:33;12.32;;;5.80;;
51248;SDS011;39642;47.556;18.728;2023-03-08T05:07:59;12.57;;;6.05;;
51248;SDS011;39642;47.556;18.728;2023-03-08T05:10:28;11.93;;;6.05;;
51248;SDS011;39642;47.556;18.728;2023-03-08T05:12:55;12.05;;;5.57;;
51248;SDS011;39642;47.556;18.728;2023-03-08T05:15:21;11.88;;;5.68;;
51248;SDS011;39642;47.556;18.728;2023-03-08T05:17:49;13.57;;;6.28;;
51248;SDS011;39642;47.556;18.728;2023-03-08T05:20:16;13.00;;;6.53;;
51248;SDS011;39642;47.556;18.728;2023-03-08T05:22:42;12.60;;;5.75;;
51248;SDS011;39642;47.556;18.728;2023-03-08T05:25:09;13.07;;;6.30;;
51248;SDS011;39642;47.556;18.728;2023-03-08T05:27:35;13.15;;;6.50;;
51248;SDS011;39642;47.556;18.728;2023-03-08T05:30:02;11.77;;;5.95;;
51248;SDS011;39642;47.556;18.728;2023-03-08T05:32:29;13.23;;;6.03;;
51248;SDS011;39642;47.556;18.728;2023-03-08T05:34:56;13.27;;;6.50;;
51248;SDS011;39642;47.556;18.728;2023-03-08T05:37:21;13.05;;;5.80;;
51248;SDS011;39642;47.556;18.728;2023-03-08T05:39:50;14.75;;;6.10;;
51248;SDS011;39642;47.556;18.728;2023-03-08T05:42:17;13.23;;;6.50;;
51248;SDS011;39642;47.556;18.728;2023-03-08T05:44:44;12.40;;;6.05;;
51248;SDS011;39642;47.556;18.728;2023-03-08T05:47:11;14.45;;;6.50;;
51248;SDS011;39642;47.556;18.728;2023-03-08T05:49:36;13.62;;;5.57;;
51248;SDS011;39642;47.556;18.728;2023-03-08T05:52:02;11.75;;;5.82;;
51248;SDS011;39642;47.556;18.728;2023-03-08T05:54:29;14.68;;;6.60;;
51248;SDS011;39642;47.556;18.728;2023-03-08T05:56:55;15.40;;;7.60;;
51248;SDS011;39642;47.556;18.728;2023-03-08T05:59:20;18.92;;;9.02;;
51248;SDS011;39642;47.556;18.728;2023-03-08T06:01:46;14.87;;;7.20;;
51248;SDS011;39642;47.556;18.728;2023-03-08T06:04:12;12.20;;;5.37;;
51248;SDS011;39642;47.556;18.728;2023-03-08T06:06:38;28.42;;;14.05;;
51248;SDS011;39642;47.556;18.728;2023-03-08T06:09:04;26.20;;;11.77;;
51248;SDS011;39642;47.556;18.728;2023-03-08T06:11:30;25.02;;;12.95;;
51248;SDS011;39642;47.556;18.728;2023-03-08T06:13:56;21.35;;;10.63;;
51248;SDS011;39642;47.556;18.728;2023-03-08T06:16:22;17.65;;;9.05;;
51248;SDS011;39642;47.556;18.728;2023-03-08T06:18:47;22.60;;;9.73;;
51248;SDS011;39642;47.556;18.728;2023-03-08T06:21:17;22.30;;;10.32;;
51248;SDS011;39642;47.556;18.728;2023-03-08T06:23:44;25.45;;;9.90;;
51248;SDS011;39642;47.556;18.728;2023-03-08T06:26:10;24.77;;;9.13;;
51248;SDS011;39642;47.556;18.728;2023-03-08T06:28:36;22.77;;;8.52;;
51248;SDS011;39642;47.556;18.728;2023-03-08T06:31:04;30.48;;;9.55;;
51248;SDS011;39642;47.556;18.728;2023-03-08T06:33:31;23.48;;;8.68;;
51248;SDS011;39642;47.556;18.728;2023-03-08T06:36:02;23.38;;;8.93;;
51248;SDS011;39642;47.556;18.728;2023-03-08T06:38:32;23.73;;;8.40;;
51248;SDS011;39642;47.556;18.728;2023-03-08T06:41:00;23.38;;;10.05;;
51248;SDS011;39642;47.556;18.728;2023-03-08T06:43:27;16.85;;;7.90;;
51248;SDS011;39642;47.556;18.728;2023-03-08T06:45:55;23.05;;;9.10;;
51248;SDS011;39642;47.556;18.728;2023-03-08T06:48:21;15.02;;;7.43;;
51248;SDS011;39642;47.556;18.728;2023-03-08T06:50:47;23.12;;;8.82;;
51248;SDS011;39642;47.556;18.728;2023-03-08T06:53:14;26.65;;;9.50;;
51248;SDS011;39642;47.556;18.728;2023-03-08T06:55:40;24.42;;;9.52;;
51248;SDS011;39642;47.556;18.728;2023-03-08T06:58:06;21.48;;;7.05;;
51248;SDS011;39642;47.556;18.728;2023-03-08T07:00:33;35.60;;;10.65;;
51248;SDS011;39642;47.556;18.728;2023-03-08T07:02:59;27.98;;;7.80;;
51248;SDS011;39642;47.556;18.728;2023-03-08T07:05:26;25.33;;;8.35;;
51248;SDS011;39642;47.556;18.728;2023-03-08T07:07:52;28.75;;;8.32;;
51248;SDS011;39642;47.556;18.728;2023-03-08T07:10:18;24.25;;;9.30;;
51248;SDS011;39642;47.556;18.728;2023-03-08T07:12:45;27.10;;;9.00;;
51248;SDS011;39642;47.556;18.728;2023-03-08T07:15:16;24.60;;;8.95;;
51248;SDS011;39642;47.556;18.728;2023-03-08T07:17:44;25.15;;;8.70;;
51248;SDS011;39642;47.556;18.728;2023-03-08T07:20:12;29.92;;;9.60;;
51248;SDS011;39642;47.556;18.728;2023-03-08T07:22:42;23.23;;;8.70;;
51248;SDS011;39642;47.556;18.728;2023-03-08T07:25:09;24.37;;;8.85;;
51248;SDS011;39642;47.556;18.728;2023-03-08T07:27:36;24.05;;;9.15;;
51248;SDS011;39642;47.556;18.728;2023-03-08T07:30:02;34.75;;;9.30;;
51248;SDS011;39642;47.556;18.728;2023-03-08T07:32:28;25.12;;;8.90;;
51248;SDS011;39642;47.556;18.728;2023-03-08T07:34:54;23.38;;;8.73;;
51248;SDS011;39642;47.556;18.728;2023-03-08T07:37:20;25.88;;;9.55;;
51248;SDS011;39642;47.556;18.728;2023-03-08T07:39:46;21.33;;;8.70;;
51248;SDS011;39642;47.556;18.728;2023-03-08T07:42:12;28.83;;;9.60;;
51248;SDS011;39642;47.556;18.728;2023-03-08T07:44:38;23.55;;;8.93;;
51248;SDS011;39642;47.556;18.728;2023-03-08T07:47:05;28.05;;;8.63;;
51248;SDS011;39642;47.556;18.728;2023-03-08T07:49:31;24.17;;;9.65;;
51248;SDS011;39642;47.556;18.728;2023-03-08T07:51:57;39.50;;;11.75;;
51248;SDS011;39642;47.556;18.728;2023-03-08T07:54:23;35.72;;;11.57;;
51248;SDS011;39642;47.556;18.728;2023-03-08T07:56:50;35.88;;;11.98;;
51248;SDS011;39642;47.556;18.728;2023-03-08T07:59:16;39.00;;;11.15;;
51248;SDS011;39642;47.556;18.728;2023-03-08T08:01:42;29.98;;;9.73;;
51248;SDS011;39642;47.556;18.728;2023-03-08T08:04:11;26.60;;;9.90;;
51248;SDS011;39642;47.556;18.728;2023-03-08T08:06:38;26.08;;;10.57;;
51248;SDS011;39642;47.556;18.728;2023-03-08T08:09:04;28.48;;;10.73;;
51248;SDS011;39642;47.556;18.728;2023-03-08T08:11:31;27.25;;;9.65;;
51248;SDS011;39642;47.556;18.728;2023-03-08T08:13:59;31.60;;;9.38;;
51248;SDS011;39642;47.556;18.728;2023-03-08T08:16:28;27.60;;;10.63;;
51248;SDS011;39642;47.556;18.728;2023-03-08T08:18:54;31.80;;;11.32;;
51248;SDS011;39642;47.556;18.728;2023-03-08T08:21:20;29.25;;;10.68;;
51248;SDS011;39642;47.556;18.728;2023-03-08T08:23:46;31.58;;;11.23;;
51248;SDS011;39642;47.556;18.728;2023-03-08T08:26:13;31.58;;;10.70;;
51248;SDS011;39642;47.556;18.728;2023-03-08T08:28:41;30.30;;;10.55;;
51248;SDS011;39642;47.556;18.728;2023-03-08T08:31:09;26.75;;;10.02;;
51248;SDS011;39642;47.556;18.728;2023-03-08T08:33:37;30.00;;;11.00;;
51248;SDS011;39642;47.556;18.728;2023-03-08T08:36:04;25.52;;;10.20;;
51248;SDS011;39642;47.556;18.728;2023-03-08T08:38:31;24.20;;;9.50;;
51248;SDS011;39642;47.556;18.728;2023-03-08T08:40:58;31.40;;;10.35;;
51248;SDS011;39642;47.556;18.728;2023-03-08T08:43:25;32.38;;;10.07;;
51248;SDS011;39642;47.556;18.728;2023-03-08T08:45:55;26.98;;;10.60;;
51248;SDS011;39642;47.556;18.728;2023-03-08T08:48:23;28.30;;;10.55;;
51248;SDS011;39642;47.556;18.728;2023-03-08T08:50:50;29.42;;;9.80;;
51248;SDS011;39642;47.556;18.728;2023-03-08T08:53:18;33.25;;;9.95;;
51248;SDS011;39642;47.556;18.728;2023-03-08T08:55:45;31.10;;;9.55;;
51248;SDS011;39642;47.556;18.728;2023-03-08T08:58:12;36.38;;;9.32;;
51248;SDS011;39642;47.556;18.728;2023-03-08T09:00:38;38.63;;;9.10;;
51248;SDS011;39642;47.556;18.728;2023-03-08T09:03:04;30.23;;;8.50;;
51248;SDS011;39642;47.556;18.728;2023-03-08T09:05:31;40.15;;;8.82;;
51248;SDS011;39642;47.556;18.728;2023-03-08T09:07:59;30.65;;;8.80;;
51248;SDS011;39642;47.556;18.728;2023-03-08T09:10:26;32.17;;;9.20;;
51248;SDS011;39642;47.556;18.728;2023-03-08T09:12:54;34.25;;;9.23;;
51248;SDS011;39642;47.556;18.728;2023-03-08T09:15:20;32.38;;;9.95;;
51248;SDS011;39642;47.556;18.728;2023-03-08T09:17:48;35.20;;;8.70;;
51248;SDS011;39642;47.556;18.728;2023-03-08T09:20:14;29.73;;;8.50;;
51248;SDS011;39642;47.556;18.728;2023-03-08T09:22:41;28.98;;;7.97;;
51248;SDS011;39642;47.556;18.728;2023-03-08T09:25:07;27.77;;;8.57;;
51248;SDS011;39642;47.556;18.728;2023-03-08T09:27:34;37.60;;;9.18;;
51248;SDS011;39642;47.556;18.728;2023-03-08T09:30:01;32.50;;;8.63;;
51248;SDS011;39642;47.556;18.728;2023-03-08T09:32:27;21.95;;;7.03;;
51248;SDS011;39642;47.556;18.728;2023-03-08T09:34:53;24.83;;;9.10;;
51248;SDS011;39642;47.556;18.728;2023-03-08T09:37:19;26.67;;;8.80;;
51248;SDS011;39642;47.556;18.728;2023-03-08T09:39:45;23.33;;;8.98;;
51248;SDS011;39642;47.556;18.728;2023-03-08T09:42:19;23.17;;;7.72;;
51248;SDS011;39642;47.556;18.728;2023-03-08T09:55:20;35.25;;;9.20;;
51248;SDS011;39642;47.556;18.728;2023-03-08T09:57:55;44.10;;;9.65;;
51248;SDS011;39642;47.556;18.728;2023-03-08T10:00:34;34.78;;;8.80;;
51248;SDS011;39642;47.556;18.728;2023-03-08T10:05:39;35.03;;;9.27;;
51248;SDS011;39642;47.556;18.728;2023-03-08T10:13:24;31.33;;;7.80;;
51248;SDS011;39642;47.556;18.728;2023-03-08T10:16:04;32.95;;;8.23;;
51248;SDS011;39642;47.556;18.728;2023-03-08T10:21:30;24.95;;;7.55;;
51248;SDS011;39642;47.556;18.728;2023-03-08T10:24:14;30.00;;;7.12;;
51248;SDS011;39642;47.556;18.728;2023-03-08T10:26:43;36.00;;;7.70;;
51248;SDS011;39642;47.556;18.728;2023-03-08T10:29:10;32.08;;;8.00;;
51248;SDS011;39642;47.556;18.728;2023-03-08T10:31:37;28.23;;;7.37;;
51248;SDS011;39642;47.556;18.728;2023-03-08T10:39:36;26.15;;;6.78;;
51248;SDS011;39642;47.556;18.728;2023-03-08T10:42:13;26.87;;;6.55;;
51248;SDS011;39642;47.556;18.728;2023-03-08T10:45:23;33.45;;;7.28;;
51248;SDS011;39642;47.556;18.728;2023-03-08T10:47:35;39.78;;;8.95;;
51248;SDS011;39642;47.556;18.728;2023-03-08T10:50:05;44.92;;;7.30;;
51248;SDS011;39642;47.556;18.728;2023-03-08T10:52:39;33.95;;;7.80;;
51248;SDS011;39642;47.556;18.728;2023-03-08T10:55:17;44.35;;;7.35;;
51248;SDS011;39642;47.556;18.728;2023-03-08T10:58:20;39.22;;;7.70;;
51248;SDS011;39642;47.556;18.728;2023-03-08T11:01:21;27.75;;;7.00;;
51248;SDS011;39642;47.556;18.728;2023-03-08T11:03:57;32.70;;;7.72;;
51248;SDS011;39642;47.556;18.728;2023-03-08T11:06:23;30.98;;;6.97;;
51248;SDS011;39642;47.556;18.728;2023-03-08T11:08:51;27.62;;;6.57;;
51248;SDS011;39642;47.556;18.728;2023-03-08T11:11:19;21.83;;;6.68;;
51248;SDS011;39642;47.556;18.728;2023-03-08T11:13:46;31.58;;;6.70;;
51248;SDS011;39642;47.556;18.728;2023-03-08T11:19:04;31.60;;;7.35;;
51248;SDS011;39642;47.556;18.728;2023-03-08T11:26:52;30.98;;;6.32;;
51248;SDS011;39642;47.556;18.728;2023-03-08T11:32:16;23.35;;;6.50;;
51248;SDS011;39642;47.556;18.728;2023-03-08T11:46:00;34.63;;;7.50;;
51248;SDS011;39642;47.556;18.728;2023-03-08T11:51:34;35.58;;;7.50;;
51248;SDS011;39642;47.556;18.728;2023-03-08T11:54:17;31.45;;;7.22;;
51248;SDS011;39642;47.556;18.728;2023-03-08T11:56:58;34.60;;;7.07;;
51248;SDS011;39642;47.556;18.728;2023-03-08T11:59:29;22.95;;;6.22;;
51248;SDS011;39642;47.556;18.728;2023-03-08T12:04:36;28.25;;;6.90;;
51248;SDS011;39642;47.556;18.728;2023-03-08T12:09:58;32.95;;;7.12;;
51248;SDS011;39642;47.556;18.728;2023-03-08T12:12:36;30.25;;;6.62;;
51248;SDS011;39642;47.556;18.728;2023-03-08T12:15:20;30.70;;;6.75;;
51248;SDS011;39642;47.556;18.728;2023-03-08T12:17:53;28.55;;;6.65;;
51248;SDS011;39642;47.556;18.728;2023-03-08T12:20:30;26.12;;;6.20;;
51248;SDS011;39642;47.556;18.728;2023-03-08T12:25:46;36.28;;;6.72;;
51248;SDS011;39642;47.556;18.728;2023-03-08T12:28:25;25.50;;;6.53;;
51248;SDS011;39642;47.556;18.728;2023-03-08T12:33:21;28.45;;;6.50;;
51248;SDS011;39642;47.556;18.728;2023-03-08T12:40:43;29.45;;;7.68;;
51248;SDS011;39642;47.556;18.728;2023-03-08T12:48:25;37.33;;;7.32;;
51248;SDS011;39642;47.556;18.728;2023-03-08T12:50:56;38.92;;;7.22;;
51248;SDS011;39642;47.556;18.728;2023-03-08T12:56:11;29.73;;;6.78;;
51248;SDS011;39642;47.556;18.728;2023-03-08T12:59:01;39.80;;;7.35;;
51248;SDS011;39642;47.556;18.728;2023-03-08T13:04:39;28.02;;;6.55;;
51248;SDS011;39642;47.556;18.728;2023-03-08T13:09:42;33.55;;;6.53;;
51248;SDS011;39642;47.556;18.728;2023-03-08T13:14:44;34.80;;;6.60;;
51248;SDS011;39642;47.556;18.728;2023-03-08T13:20:08;31.95;;;7.82;;
51248;SDS011;39642;47.556;18.728;2023-03-08T13:25:32;29.45;;;6.82;;
51248;SDS011;39642;47.556;18.728;2023-03-08T13:28:06;24.45;;;6.65;;
51248;SDS011;39642;47.556;18.728;2023-03-08T13:30:41;27.17;;;7.37;;
51248;SDS011;39642;47.556;18.728;2023-03-08T13:33:16;37.30;;;8.13;;
51248;SDS011;39642;47.556;18.728;2023-03-08T13:36:13;32.92;;;6.07;;
51248;SDS011;39642;47.556;18.728;2023-03-08T13:38:57;24.70;;;5.85;;
51248;SDS011;39642;47.556;18.728;2023-03-08T13:41:39;18.92;;;5.07;;
51248;SDS011;39642;47.556;18.728;2023-03-08T13:44:21;20.33;;;5.93;;
51248;SDS011;39642;47.556;18.728;2023-03-08T13:46:53;20.73;;;5.55;;
51248;SDS011;39642;47.556;18.728;2023-03-08T13:49:33;21.75;;;5.45;;
51248;SDS011;39642;47.556;18.728;2023-03-08T13:52:02;18.90;;;5.20;;
51248;SDS011;39642;47.556;18.728;2023-03-08T13:54:34;32.42;;;6.85;;
51248;SDS011;39642;47.556;18.728;2023-03-08T13:57:02;44.72;;;7.25;;
51248;SDS011;39642;47.556;18.728;2023-03-08T13:59:30;29.70;;;6.20;;
51248;SDS011;39642;47.556;18.728;2023-03-08T14:01:59;37.33;;;7.15;;
51248;SDS011;39642;47.556;18.728;2023-03-08T14:04:26;34.72;;;6.10;;
51248;SDS011;39642;47.556;18.728;2023-03-08T14:06:57;32.15;;;6.80;;
51248;SDS011;39642;47.556;18.728;2023-03-08T14:09:25;21.87;;;5.72;;
51248;SDS011;39642;47.556;18.728;2023-03-08T14:11:54;24.58;;;5.40;;
51248;SDS011;39642;47.556;18.728;2023-03-08T14:14:28;32.47;;;7.37;;
51248;SDS011;39642;47.556;18.728;2023-03-08T14:17:00;29.67;;;7.00;;
51248;SDS011;39642;47.556;18.728;2023-03-08T14:19:27;29.12;;;6.75;;
51248;SDS011;39642;47.556;18.728;2023-03-08T14:22:01;28.00;;;6.12;;
51248;SDS011;39642;47.556;18.728;2023-03-08T14:24:34;25.08;;;7.15;;
51248;SDS011;39642;47.556;18.728;2023-03-08T14:27:02;32.45;;;6.22;;
51248;SDS011;39642;47.556;18.728;2023-03-08T14:29:34;29.60;;;6.78;;
51248;SDS011;39642;47.556;18.728;2023-03-08T14:34:34;25.85;;;5.87;;
51248;SDS011;39642;47.556;18.728;2023-03-08T14:39:36;33.80;;;6.00;;
51248;SDS011;39642;47.556;18.728;2023-03-08T14:42:08;28.48;;;6.32;;
51248;SDS011;39642;47.556;18.728;2023-03-08T14:44:50;22.13;;;5.97;;
51248;SDS011;39642;47.556;18.728;2023-03-08T14:47:46;29.45;;;6.68;;
51248;SDS011;39642;47.556;18.728;2023-03-08T14:50:22;34.28;;;7.05;;
51248;SDS011;39642;47.556;18.728;2023-03-08T14:52:50;20.65;;;5.90;;
51248;SDS011;39642;47.556;18.728;2023-03-08T14:55:18;21.12;;;6.37;;
51248;SDS011;39642;47.556;18.728;2023-03-08T14:58:03;21.33;;;5.47;;
51248;SDS011;39642;47.556;18.728;2023-03-08T15:00:36;24.92;;;5.95;;
51248;SDS011;39642;47.556;18.728;2023-03-08T15:03:12;19.70;;;5.22;;
51248;SDS011;39642;47.556;18.728;2023-03-08T15:05:38;22.10;;;5.78;;
51248;SDS011;39642;47.556;18.728;2023-03-08T15:08:04;23.77;;;5.57;;
51248;SDS011;39642;47.556;18.728;2023-03-08T15:10:35;25.88;;;5.78;;
51248;SDS011;39642;47.556;18.728;2023-03-08T15:13:03;23.98;;;5.35;;
51248;SDS011;39642;47.556;18.728;2023-03-08T15:15:30;27.52;;;5.37;;
51248;SDS011;39642;47.556;18.728;2023-03-08T15:17:56;20.67;;;5.50;;
51248;SDS011;39642;47.556;18.728;2023-03-08T15:20:22;24.02;;;5.18;;
51248;SDS011;39642;47.556;18.728;2023-03-08T15:22:50;22.40;;;5.35;;
51248;SDS011;39642;47.556;18.728;2023-03-08T15:25:41;27.25;;;5.95;;
51248;SDS011;39642;47.556;18.728;2023-03-08T15:28:05;31.85;;;6.10;;
51248;SDS011;39642;47.556;18.728;2023-03-08T15:30:31;33.10;;;6.30;;
51248;SDS011;39642;47.556;18.728;2023-03-08T15:32:57;24.08;;;6.18;;
51248;SDS011;39642;47.556;18.728;2023-03-08T15:35:24;19.48;;;5.68;;
51248;SDS011;39642;47.556;18.728;2023-03-08T15:37:50;24.15;;;5.78;;
51248;SDS011;39642;47.556;18.728;2023-03-08T15:40:17;25.17;;;6.22;;
51248;SDS011;39642;47.556;18.728;2023-03-08T15:42:45;24.35;;;6.22;;
51248;SDS011;39642;47.556;18.728;2023-03-08T15:45:11;24.27;;;6.20;;
51248;SDS011;39642;47.556;18.728;2023-03-08T15:47:38;20.85;;;6.20;;
51248;SDS011;39642;47.556;18.728;2023-03-08T15:50:05;18.58;;;5.62;;
51248;SDS011;39642;47.556;18.728;2023-03-08T15:52:36;19.17;;;5.40;;
51248;SDS011;39642;47.556;18.728;2023-03-08T15:55:02;21.35;;;5.97;;
51248;SDS011;39642;47.556;18.728;2023-03-08T15:57:28;18.55;;;5.62;;
51248;SDS011;39642;47.556;18.728;2023-03-08T15:59:54;15.98;;;5.47;;
51248;SDS011;39642;47.556;18.728;2023-03-08T16:02:20;15.85;;;5.93;;
51248;SDS011;39642;47.556;18.728;2023-03-08T16:04:46;19.60;;;5.32;;
51248;SDS011;39642;47.556;18.728;2023-03-08T16:07:17;17.62;;;5.32;;
51248;SDS011;39642;47.556;18.728;2023-03-08T16:09:44;19.12;;;6.00;;
51248;SDS011;39642;47.556;18.728;2023-03-08T16:12:12;21.02;;;5.50;;
51248;SDS011;39642;47.556;18.728;2023-03-08T16:14:38;20.92;;;5.20;;
51248;SDS011;39642;47.556;18.728;2023-03-08T16:17:05;18.50;;;5.20;;